sensor_id;sensor_type;location;lat;lon;timestamp;P1;durP1;ratioP1;P2;durP2;ratioP2
59440;SDS011;45245;51.538;11.870;2022-07-29T00:01:27;1.92;;;1.40;;
59440;SDS011;45245;51.538;11.870;2022-07-29T00:03:52;2.97;;;1.63;;
59440;SDS011;45245;51.538;11.870;2022-07-29T00:06:18;3.03;;;1.52;;
59440;SDS011;45245;51.538;11.870;2022-07-29T00:08:44;1.50;;;1.38;;
59440;SDS011;45245;51.538;11.870;2022-07-29T00:11:09;1.77;;;1.67;;
59440;SDS011;45245;51.538;11.870;2022-07-29T00:13:34;1.77;;;1.65;;
59440;SDS011;45245;51.538;11.870;2022-07-29T00:15:59;2.30;;;1.60;;
59440;SDS011;45245;51.538;11.870;2022-07-29T00:18:25;2.30;;;1.83;;
59440;SDS011;45245;51.538;11.870;2022-07-29T00:20:50;2.97;;;1.40;;
59440;SDS011;45245;51.538;11.870;2022-07-29T00:23:15;1.92;;;1.67;;
59440;SDS011;45245;51.538;11.870;2022-07-29T00:25:41;2.17;;;1.50;;
59440;SDS011;45245;51.538;11.870;2022-07-29T00:28:06;2.47;;;1.60;;
59440;SDS011;45245;51.538;11.870;2022-07-29T00:30:31;1.65;;;1.55;;
59440;SDS011;45245;51.538;11.870;2022-07-29T00:32:57;3.05;;;2.08;;
59440;SDS011;45245;51.538;11.870;2022-07-29T00:35:22;2.00;;;1.30;;
59440;SDS011;45245;51.538;11.870;2022-07-29T00:38:06;2.45;;;1.90;;
59440;SDS011;45245;51.538;11.870;2022-07-29T00:40:32;1.52;;;1.42;;
59440;SDS011;45245;51.538;11.870;2022-07-29T00:42:57;1.95;;;1.80;;
59440;SDS011;45245;51.538;11.870;2022-07-29T00:45:22;1.55;;;1.45;;
59440;SDS011;45245;51.538;11.870;2022-07-29T00:47:48;1.92;;;1.77;;
59440;SDS011;45245;51.538;11.870;2022-07-29T00:50:13;2.33;;;1.60;;
59440;SDS011;45245;51.538;11.870;2022-07-29T00:52:39;2.25;;;1.58;;
59440;SDS011;45245;51.538;11.870;2022-07-29T00:55:06;1.85;;;1.67;;
59440;SDS011;45245;51.538;11.870;2022-07-29T00:57:34;1.85;;;1.75;;
59440;SDS011;45245;51.538;11.870;2022-07-29T01:00:00;2.88;;;1.98;;
59440;SDS011;45245;51.538;11.870;2022-07-29T01:02:25;2.88;;;1.85;;
59440;SDS011;45245;51.538;11.870;2022-07-29T01:04:51;2.03;;;1.65;;
59440;SDS011;45245;51.538;11.870;2022-07-29T01:07:17;4.28;;;1.80;;
59440;SDS011;45245;51.538;11.870;2022-07-29T01:09:43;3.28;;;1.80;;
59440;SDS011;45245;51.538;11.870;2022-07-29T01:12:09;2.83;;;2.00;;
59440;SDS011;45245;51.538;11.870;2022-07-29T01:14:35;2.67;;;1.73;;
59440;SDS011;45245;51.538;11.870;2022-07-29T01:20:05;3.78;;;1.75;;
59440;SDS011;45245;51.538;11.870;2022-07-29T01:22:37;1.88;;;1.70;;
59440;SDS011;45245;51.538;11.870;2022-07-29T01:25:31;4.65;;;1.90;;
59440;SDS011;45245;51.538;11.870;2022-07-29T01:32:07;1.70;;;1.60;;
59440;SDS011;45245;51.538;11.870;2022-07-29T01:34:10;2.45;;;2.00;;
59440;SDS011;45245;51.538;11.870;2022-07-29T01:36:43;2.45;;;1.75;;
59440;SDS011;45245;51.538;11.870;2022-07-29T01:39:14;5.60;;;1.70;;
59440;SDS011;45245;51.538;11.870;2022-07-29T01:41:48;2.40;;;1.60;;
59440;SDS011;45245;51.538;11.870;2022-07-29T01:44:20;1.77;;;1.63;;
59440;SDS011;45245;51.538;11.870;2022-07-29T01:46:56;2.13;;;1.98;;
59440;SDS011;45245;51.538;11.870;2022-07-29T01:49:34;2.53;;;2.00;;
59440;SDS011;45245;51.538;11.870;2022-07-29T01:52:05;2.90;;;1.60;;
59440;SDS011;45245;51.538;11.870;2022-07-29T01:54:40;1.73;;;1.60;;
59440;SDS011;45245;51.538;11.870;2022-07-29T01:57:08;2.88;;;1.95;;
59440;SDS011;45245;51.538;11.870;2022-07-29T01:59:34;1.75;;;1.65;;
59440;SDS011;45245;51.538;11.870;2022-07-29T02:02:01;3.03;;;2.15;;
59440;SDS011;45245;51.538;11.870;2022-07-29T02:04:28;1.63;;;1.52;;
59440;SDS011;45245;51.538;11.870;2022-07-29T02:06:54;3.30;;;1.80;;
59440;SDS011;45245;51.538;11.870;2022-07-29T02:09:23;6.75;;;2.35;;
59440;SDS011;45245;51.538;11.870;2022-07-29T02:11:51;2.40;;;1.90;;
59440;SDS011;45245;51.538;11.870;2022-07-29T02:14:18;3.50;;;1.92;;
59440;SDS011;45245;51.538;11.870;2022-07-29T02:16:44;2.00;;;1.83;;
59440;SDS011;45245;51.538;11.870;2022-07-29T02:19:10;1.98;;;1.77;;
59440;SDS011;45245;51.538;11.870;2022-07-29T02:21:37;2.80;;;1.90;;
59440;SDS011;45245;51.538;11.870;2022-07-29T02:24:02;2.90;;;2.30;;
59440;SDS011;45245;51.538;11.870;2022-07-29T02:26:29;3.38;;;1.60;;
59440;SDS011;45245;51.538;11.870;2022-07-29T02:28:57;2.90;;;2.00;;
59440;SDS011;45245;51.538;11.870;2022-07-29T02:31:25;2.42;;;2.22;;
59440;SDS011;45245;51.538;11.870;2022-07-29T02:33:52;2.90;;;2.10;;
59440;SDS011;45245;51.538;11.870;2022-07-29T02:36:18;1.95;;;1.65;;
59440;SDS011;45245;51.538;11.870;2022-07-29T02:38:46;4.35;;;2.05;;
59440;SDS011;45245;51.538;11.870;2022-07-29T02:41:28;6.03;;;2.05;;
59440;SDS011;45245;51.538;11.870;2022-07-29T02:43:57;3.85;;;1.80;;
59440;SDS011;45245;51.538;11.870;2022-07-29T02:46:30;2.08;;;1.88;;
59440;SDS011;45245;51.538;11.870;2022-07-29T02:49:16;3.22;;;1.80;;
59440;SDS011;45245;51.538;11.870;2022-07-29T02:51:51;1.75;;;1.65;;
59440;SDS011;45245;51.538;11.870;2022-07-29T02:54:21;2.03;;;1.90;;
59440;SDS011;45245;51.538;11.870;2022-07-29T02:56:54;2.65;;;1.73;;
59440;SDS011;45245;51.538;11.870;2022-07-29T02:59:23;3.15;;;2.00;;
59440;SDS011;45245;51.538;11.870;2022-07-29T03:01:50;2.45;;;1.73;;
59440;SDS011;45245;51.538;11.870;2022-07-29T03:04:17;2.53;;;1.83;;
59440;SDS011;45245;51.538;11.870;2022-07-29T03:06:44;1.73;;;1.63;;
59440;SDS011;45245;51.538;11.870;2022-07-29T03:09:10;3.13;;;1.85;;
59440;SDS011;45245;51.538;11.870;2022-07-29T03:11:35;2.20;;;1.90;;
59440;SDS011;45245;51.538;11.870;2022-07-29T03:14:01;3.05;;;2.15;;
59440;SDS011;45245;51.538;11.870;2022-07-29T03:16:27;2.78;;;1.95;;
59440;SDS011;45245;51.538;11.870;2022-07-29T03:18:53;2.50;;;2.05;;
59440;SDS011;45245;51.538;11.870;2022-07-29T03:21:19;3.35;;;2.03;;
59440;SDS011;45245;51.538;11.870;2022-07-29T03:23:44;2.20;;;2.00;;
59440;SDS011;45245;51.538;11.870;2022-07-29T03:26:10;3.05;;;2.15;;
59440;SDS011;45245;51.538;11.870;2022-07-29T03:28:36;3.53;;;1.95;;
59440;SDS011;45245;51.538;11.870;2022-07-29T03:31:01;2.33;;;1.90;;
59440;SDS011;45245;51.538;11.870;2022-07-29T03:33:26;2.00;;;1.90;;
59440;SDS011;45245;51.538;11.870;2022-07-29T03:35:53;2.47;;;2.00;;
59440;SDS011;45245;51.538;11.870;2022-07-29T03:38:19;2.72;;;2.40;;
59440;SDS011;45245;51.538;11.870;2022-07-29T03:40:52;2.28;;;2.08;;
59440;SDS011;45245;51.538;11.870;2022-07-29T03:43:19;3.10;;;1.80;;
59440;SDS011;45245;51.538;11.870;2022-07-29T03:45:46;5.38;;;2.20;;
59440;SDS011;45245;51.538;11.870;2022-07-29T03:48:14;2.95;;;2.03;;
59440;SDS011;45245;51.538;11.870;2022-07-29T03:50:40;2.95;;;2.00;;
59440;SDS011;45245;51.538;11.870;2022-07-29T03:53:06;4.00;;;2.83;;
59440;SDS011;45245;51.538;11.870;2022-07-29T03:55:32;2.17;;;2.00;;
59440;SDS011;45245;51.538;11.870;2022-07-29T03:58:01;2.03;;;1.80;;
59440;SDS011;45245;51.538;11.870;2022-07-29T04:00:27;1.92;;;1.83;;
59440;SDS011;45245;51.538;11.870;2022-07-29T04:02:52;2.47;;;2.17;;
59440;SDS011;45245;51.538;11.870;2022-07-29T04:05:18;1.98;;;1.88;;
59440;SDS011;45245;51.538;11.870;2022-07-29T04:07:44;3.42;;;1.90;;
59440;SDS011;45245;51.538;11.870;2022-07-29T04:10:12;3.67;;;2.33;;
59440;SDS011;45245;51.538;11.870;2022-07-29T04:12:38;2.95;;;1.90;;
59440;SDS011;45245;51.538;11.870;2022-07-29T04:15:04;2.10;;;1.90;;
59440;SDS011;45245;51.538;11.870;2022-07-29T04:17:30;2.20;;;2.05;;
59440;SDS011;45245;51.538;11.870;2022-07-29T04:19:55;2.40;;;2.20;;
59440;SDS011;45245;51.538;11.870;2022-07-29T04:22:20;2.80;;;2.25;;
59440;SDS011;45245;51.538;11.870;2022-07-29T04:24:46;2.28;;;2.08;;
59440;SDS011;45245;51.538;11.870;2022-07-29T04:27:11;2.35;;;1.83;;
59440;SDS011;45245;51.538;11.870;2022-07-29T04:29:36;3.05;;;2.25;;
59440;SDS011;45245;51.538;11.870;2022-07-29T04:32:02;2.65;;;1.75;;
59440;SDS011;45245;51.538;11.870;2022-07-29T04:34:27;3.15;;;2.00;;
59440;SDS011;45245;51.538;11.870;2022-07-29T04:36:52;3.75;;;1.92;;
59440;SDS011;45245;51.538;11.870;2022-07-29T04:39:18;3.63;;;2.30;;
59440;SDS011;45245;51.538;11.870;2022-07-29T04:41:43;3.00;;;1.92;;
59440;SDS011;45245;51.538;11.870;2022-07-29T04:44:09;2.30;;;2.10;;
59440;SDS011;45245;51.538;11.870;2022-07-29T04:46:34;2.45;;;1.90;;
59440;SDS011;45245;51.538;11.870;2022-07-29T04:49:00;2.20;;;1.88;;
59440;SDS011;45245;51.538;11.870;2022-07-29T04:51:25;6.00;;;2.33;;
59440;SDS011;45245;51.538;11.870;2022-07-29T04:53:51;2.38;;;2.10;;
59440;SDS011;45245;51.538;11.870;2022-07-29T04:56:16;3.05;;;1.88;;
59440;SDS011;45245;51.538;11.870;2022-07-29T04:58:41;3.03;;;1.88;;
59440;SDS011;45245;51.538;11.870;2022-07-29T05:01:07;2.45;;;2.25;;
59440;SDS011;45245;51.538;11.870;2022-07-29T05:03:32;2.83;;;2.20;;
59440;SDS011;45245;51.538;11.870;2022-07-29T05:05:57;3.20;;;1.92;;
59440;SDS011;45245;51.538;11.870;2022-07-29T05:08:23;2.22;;;2.03;;
59440;SDS011;45245;51.538;11.870;2022-07-29T05:10:48;4.80;;;2.20;;
59440;SDS011;45245;51.538;11.870;2022-07-29T05:13:13;3.63;;;2.03;;
59440;SDS011;45245;51.538;11.870;2022-07-29T05:15:39;2.72;;;2.22;;
59440;SDS011;45245;51.538;11.870;2022-07-29T05:18:04;3.95;;;2.67;;
59440;SDS011;45245;51.538;11.870;2022-07-29T05:20:30;3.75;;;1.92;;
59440;SDS011;45245;51.538;11.870;2022-07-29T05:22:56;3.92;;;2.40;;
59440;SDS011;45245;51.538;11.870;2022-07-29T05:25:22;3.55;;;2.20;;
59440;SDS011;45245;51.538;11.870;2022-07-29T05:27:48;5.72;;;2.20;;
59440;SDS011;45245;51.538;11.870;2022-07-29T05:30:13;2.55;;;2.13;;
59440;SDS011;45245;51.538;11.870;2022-07-29T05:32:38;5.05;;;2.15;;
59440;SDS011;45245;51.538;11.870;2022-07-29T05:35:04;2.17;;;1.98;;
59440;SDS011;45245;51.538;11.870;2022-07-29T05:37:30;3.03;;;2.08;;
59440;SDS011;45245;51.538;11.870;2022-07-29T05:39:55;2.50;;;2.03;;
59440;SDS011;45245;51.538;11.870;2022-07-29T05:42:21;2.90;;;2.50;;
59440;SDS011;45245;51.538;11.870;2022-07-29T05:44:46;2.13;;;1.95;;
59440;SDS011;45245;51.538;11.870;2022-07-29T05:47:12;2.78;;;2.00;;
59440;SDS011;45245;51.538;11.870;2022-07-29T05:49:37;2.13;;;1.88;;
59440;SDS011;45245;51.538;11.870;2022-07-29T05:52:03;2.78;;;2.20;;
59440;SDS011;45245;51.538;11.870;2022-07-29T05:54:29;1.75;;;1.65;;
59440;SDS011;45245;51.538;11.870;2022-07-29T05:56:54;3.83;;;2.15;;
59440;SDS011;45245;51.538;11.870;2022-07-29T05:59:19;2.75;;;1.77;;
59440;SDS011;45245;51.538;11.870;2022-07-29T06:01:45;4.55;;;2.45;;
59440;SDS011;45245;51.538;11.870;2022-07-29T06:04:10;2.25;;;2.00;;
59440;SDS011;45245;51.538;11.870;2022-07-29T06:06:35;2.08;;;1.98;;
59440;SDS011;45245;51.538;11.870;2022-07-29T06:09:01;2.35;;;2.08;;
59440;SDS011;45245;51.538;11.870;2022-07-29T06:11:27;3.35;;;2.33;;
59440;SDS011;45245;51.538;11.870;2022-07-29T06:13:52;2.88;;;2.30;;
59440;SDS011;45245;51.538;11.870;2022-07-29T06:16:18;2.45;;;2.25;;
59440;SDS011;45245;51.538;11.870;2022-07-29T06:18:43;2.40;;;2.20;;
59440;SDS011;45245;51.538;11.870;2022-07-29T06:21:09;6.25;;;2.17;;
59440;SDS011;45245;51.538;11.870;2022-07-29T06:23:35;4.53;;;2.50;;
59440;SDS011;45245;51.538;11.870;2022-07-29T06:26:03;2.45;;;2.00;;
59440;SDS011;45245;51.538;11.870;2022-07-29T06:28:28;3.53;;;2.17;;
59440;SDS011;45245;51.538;11.870;2022-07-29T06:30:54;2.95;;;2.35;;
59440;SDS011;45245;51.538;11.870;2022-07-29T06:33:19;3.08;;;2.15;;
59440;SDS011;45245;51.538;11.870;2022-07-29T06:35:45;3.13;;;2.50;;
59440;SDS011;45245;51.538;11.870;2022-07-29T06:38:12;3.80;;;2.30;;
59440;SDS011;45245;51.538;11.870;2022-07-29T06:40:40;3.05;;;2.60;;
59440;SDS011;45245;51.538;11.870;2022-07-29T06:43:29;2.80;;;2.08;;
59440;SDS011;45245;51.538;11.870;2022-07-29T06:45:57;3.28;;;2.97;;
59440;SDS011;45245;51.538;11.870;2022-07-29T06:48:23;3.47;;;2.10;;
59440;SDS011;45245;51.538;11.870;2022-07-29T06:50:49;2.60;;;2.40;;
59440;SDS011;45245;51.538;11.870;2022-07-29T06:53:14;2.38;;;2.13;;
59440;SDS011;45245;51.538;11.870;2022-07-29T06:55:40;2.70;;;2.20;;
59440;SDS011;45245;51.538;11.870;2022-07-29T06:58:05;3.47;;;2.50;;
59440;SDS011;45245;51.538;11.870;2022-07-29T07:00:31;2.67;;;2.42;;
59440;SDS011;45245;51.538;11.870;2022-07-29T07:02:57;2.63;;;2.38;;
59440;SDS011;45245;51.538;11.870;2022-07-29T07:05:22;2.50;;;2.30;;
59440;SDS011;45245;51.538;11.870;2022-07-29T07:07:48;2.95;;;2.65;;
59440;SDS011;45245;51.538;11.870;2022-07-29T07:10:13;2.85;;;2.20;;
59440;SDS011;45245;51.538;11.870;2022-07-29T07:12:39;3.55;;;2.45;;
59440;SDS011;45245;51.538;11.870;2022-07-29T07:15:05;2.88;;;2.53;;
59440;SDS011;45245;51.538;11.870;2022-07-29T07:17:31;3.40;;;2.47;;
59440;SDS011;45245;51.538;11.870;2022-07-29T07:19:56;4.75;;;3.13;;
59440;SDS011;45245;51.538;11.870;2022-07-29T07:22:21;3.72;;;2.67;;
59440;SDS011;45245;51.538;11.870;2022-07-29T07:24:47;5.63;;;2.78;;
59440;SDS011;45245;51.538;11.870;2022-07-29T07:27:12;3.15;;;2.85;;
59440;SDS011;45245;51.538;11.870;2022-07-29T07:29:37;3.42;;;2.40;;
59440;SDS011;45245;51.538;11.870;2022-07-29T07:32:06;5.47;;;2.60;;
59440;SDS011;45245;51.538;11.870;2022-07-29T07:34:31;2.67;;;2.47;;
59440;SDS011;45245;51.538;11.870;2022-07-29T07:36:56;3.55;;;2.58;;
59440;SDS011;45245;51.538;11.870;2022-07-29T07:39:22;5.80;;;2.55;;
59440;SDS011;45245;51.538;11.870;2022-07-29T07:41:47;6.03;;;2.83;;
59440;SDS011;45245;51.538;11.870;2022-07-29T07:44:12;4.05;;;2.55;;
59440;SDS011;45245;51.538;11.870;2022-07-29T07:46:38;4.65;;;2.65;;
59440;SDS011;45245;51.538;11.870;2022-07-29T07:49:03;5.68;;;2.80;;
59440;SDS011;45245;51.538;11.870;2022-07-29T07:51:28;3.03;;;2.72;;
59440;SDS011;45245;51.538;11.870;2022-07-29T07:53:54;3.67;;;2.90;;
59440;SDS011;45245;51.538;11.870;2022-07-29T07:56:19;3.30;;;2.70;;
59440;SDS011;45245;51.538;11.870;2022-07-29T07:58:45;4.90;;;2.75;;
59440;SDS011;45245;51.538;11.870;2022-07-29T08:01:10;3.00;;;2.72;;
59440;SDS011;45245;51.538;11.870;2022-07-29T08:03:35;4.00;;;3.10;;
59440;SDS011;45245;51.538;11.870;2022-07-29T08:06:02;4.75;;;2.80;;
59440;SDS011;45245;51.538;11.870;2022-07-29T08:08:27;3.72;;;3.30;;
59440;SDS011;45245;51.538;11.870;2022-07-29T08:10:53;3.40;;;3.10;;
59440;SDS011;45245;51.538;11.870;2022-07-29T08:13:19;5.40;;;3.47;;
59440;SDS011;45245;51.538;11.870;2022-07-29T08:15:45;4.05;;;3.65;;
59440;SDS011;45245;51.538;11.870;2022-07-29T08:18:11;4.65;;;3.40;;
59440;SDS011;45245;51.538;11.870;2022-07-29T08:20:37;4.93;;;3.70;;
59440;SDS011;45245;51.538;11.870;2022-07-29T08:23:04;5.22;;;3.78;;
59440;SDS011;45245;51.538;11.870;2022-07-29T08:25:31;5.20;;;4.18;;
59440;SDS011;45245;51.538;11.870;2022-07-29T08:27:57;8.15;;;4.85;;
59440;SDS011;45245;51.538;11.870;2022-07-29T08:30:23;7.68;;;5.18;;
59440;SDS011;45245;51.538;11.870;2022-07-29T08:32:48;6.82;;;4.63;;
59440;SDS011;45245;51.538;11.870;2022-07-29T08:35:15;6.20;;;5.00;;
59440;SDS011;45245;51.538;11.870;2022-07-29T08:37:40;6.85;;;5.60;;
59440;SDS011;45245;51.538;11.870;2022-07-29T08:40:06;10.52;;;5.75;;
59440;SDS011;45245;51.538;11.870;2022-07-29T08:42:32;7.82;;;6.70;;
59440;SDS011;45245;51.538;11.870;2022-07-29T08:44:57;8.55;;;6.45;;
59440;SDS011;45245;51.538;11.870;2022-07-29T08:47:23;8.20;;;6.97;;
59440;SDS011;45245;51.538;11.870;2022-07-29T08:49:51;7.32;;;6.13;;
59440;SDS011;45245;51.538;11.870;2022-07-29T08:52:16;8.55;;;6.65;;
59440;SDS011;45245;51.538;11.870;2022-07-29T08:54:43;9.68;;;5.53;;
59440;SDS011;45245;51.538;11.870;2022-07-29T08:57:09;8.10;;;5.68;;
59440;SDS011;45245;51.538;11.870;2022-07-29T08:59:34;8.32;;;5.65;;
59440;SDS011;45245;51.538;11.870;2022-07-29T09:02:00;6.80;;;5.40;;
59440;SDS011;45245;51.538;11.870;2022-07-29T09:04:29;7.93;;;5.63;;
59440;SDS011;45245;51.538;11.870;2022-07-29T09:06:56;7.55;;;5.10;;
59440;SDS011;45245;51.538;11.870;2022-07-29T09:09:23;5.90;;;5.30;;
59440;SDS011;45245;51.538;11.870;2022-07-29T09:11:49;6.82;;;5.97;;
59440;SDS011;45245;51.538;11.870;2022-07-29T09:14:14;8.95;;;5.30;;
59440;SDS011;45245;51.538;11.870;2022-07-29T09:16:50;5.90;;;5.30;;
59440;SDS011;45245;51.538;11.870;2022-07-29T09:19:23;7.40;;;5.53;;
59440;SDS011;45245;51.538;11.870;2022-07-29T09:21:53;5.85;;;4.40;;
59440;SDS011;45245;51.538;11.870;2022-07-29T09:24:22;5.85;;;5.22;;
59440;SDS011;45245;51.538;11.870;2022-07-29T09:26:47;7.60;;;4.65;;
59440;SDS011;45245;51.538;11.870;2022-07-29T09:29:13;5.07;;;4.50;;
59440;SDS011;45245;51.538;11.870;2022-07-29T09:31:41;5.55;;;4.60;;
59440;SDS011;45245;51.538;11.870;2022-07-29T09:34:08;4.78;;;4.38;;
59440;SDS011;45245;51.538;11.870;2022-07-29T09:36:43;4.55;;;4.13;;
59440;SDS011;45245;51.538;11.870;2022-07-29T09:39:11;4.18;;;3.78;;
59440;SDS011;45245;51.538;11.870;2022-07-29T09:42:10;5.03;;;4.13;;
59440;SDS011;45245;51.538;11.870;2022-07-29T09:44:43;4.97;;;3.83;;
59440;SDS011;45245;51.538;11.870;2022-07-29T09:47:09;7.18;;;4.00;;
59440;SDS011;45245;51.538;11.870;2022-07-29T09:49:36;4.68;;;3.67;;
59440;SDS011;45245;51.538;11.870;2022-07-29T09:52:22;3.65;;;3.13;;
59440;SDS011;45245;51.538;11.870;2022-07-29T09:54:48;5.60;;;3.10;;
59440;SDS011;45245;51.538;11.870;2022-07-29T09:57:24;5.55;;;3.50;;
59440;SDS011;45245;51.538;11.870;2022-07-29T09:59:56;6.32;;;3.55;;
59440;SDS011;45245;51.538;11.870;2022-07-29T10:02:27;3.58;;;3.13;;
59440;SDS011;45245;51.538;11.870;2022-07-29T10:04:53;4.72;;;3.33;;
59440;SDS011;45245;51.538;11.870;2022-07-29T10:07:18;3.92;;;3.50;;
59440;SDS011;45245;51.538;11.870;2022-07-29T10:09:54;3.28;;;3.05;;
59440;SDS011;45245;51.538;11.870;2022-07-29T10:12:20;3.38;;;3.08;;
59440;SDS011;45245;51.538;11.870;2022-07-29T10:14:46;6.05;;;3.30;;
59440;SDS011;45245;51.538;11.870;2022-07-29T10:17:12;4.78;;;3.38;;
59440;SDS011;45245;51.538;11.870;2022-07-29T10:19:37;4.22;;;2.97;;
59440;SDS011;45245;51.538;11.870;2022-07-29T10:22:04;6.75;;;2.95;;
59440;SDS011;45245;51.538;11.870;2022-07-29T10:24:31;4.25;;;3.10;;
59440;SDS011;45245;51.538;11.870;2022-07-29T10:26:59;4.03;;;2.95;;
59440;SDS011;45245;51.538;11.870;2022-07-29T10:29:25;3.42;;;2.78;;
59440;SDS011;45245;51.538;11.870;2022-07-29T10:31:57;3.20;;;2.90;;
59440;SDS011;45245;51.538;11.870;2022-07-29T10:37:03;5.13;;;3.53;;
59440;SDS011;45245;51.538;11.870;2022-07-29T10:39:56;2.92;;;2.72;;
59440;SDS011;45245;51.538;11.870;2022-07-29T10:42:25;4.40;;;3.17;;
59440;SDS011;45245;51.538;11.870;2022-07-29T10:44:53;3.78;;;2.72;;
59440;SDS011;45245;51.538;11.870;2022-07-29T10:47:22;4.57;;;3.63;;
59440;SDS011;45245;51.538;11.870;2022-07-29T10:49:58;3.95;;;3.00;;
59440;SDS011;45245;51.538;11.870;2022-07-29T10:55:31;3.47;;;3.17;;
59440;SDS011;45245;51.538;11.870;2022-07-29T11:00:51;4.18;;;3.15;;
59440;SDS011;45245;51.538;11.870;2022-07-29T11:06:12;3.75;;;3.30;;
59440;SDS011;45245;51.538;11.870;2022-07-29T11:08:38;5.55;;;3.40;;
59440;SDS011;45245;51.538;11.870;2022-07-29T11:13:44;4.40;;;3.38;;
59440;SDS011;45245;51.538;11.870;2022-07-29T11:16:15;3.47;;;3.10;;
59440;SDS011;45245;51.538;11.870;2022-07-29T11:19:23;3.33;;;3.03;;
59440;SDS011;45245;51.538;11.870;2022-07-29T11:21:35;4.15;;;2.83;;
59440;SDS011;45245;51.538;11.870;2022-07-29T11:24:11;3.92;;;3.40;;
59440;SDS011;45245;51.538;11.870;2022-07-29T11:26:40;3.45;;;3.15;;
59440;SDS011;45245;51.538;11.870;2022-07-29T11:29:13;3.58;;;3.00;;
59440;SDS011;45245;51.538;11.870;2022-07-29T11:31:43;3.40;;;2.83;;
59440;SDS011;45245;51.538;11.870;2022-07-29T11:39:31;4.57;;;3.38;;
59440;SDS011;45245;51.538;11.870;2022-07-29T11:44:53;3.75;;;3.10;;
59440;SDS011;45245;51.538;11.870;2022-07-29T11:47:20;4.75;;;2.85;;
59440;SDS011;45245;51.538;11.870;2022-07-29T11:49:46;3.97;;;3.60;;
59440;SDS011;45245;51.538;11.870;2022-07-29T11:52:12;3.22;;;2.90;;
59440;SDS011;45245;51.538;11.870;2022-07-29T11:54:38;4.70;;;2.72;;
59440;SDS011;45245;51.538;11.870;2022-07-29T11:57:06;3.80;;;2.83;;
59440;SDS011;45245;51.538;11.870;2022-07-29T11:59:37;3.25;;;2.95;;
59440;SDS011;45245;51.538;11.870;2022-07-29T12:02:04;4.53;;;3.13;;
59440;SDS011;45245;51.538;11.870;2022-07-29T12:04:29;6.53;;;3.08;;
59440;SDS011;45245;51.538;11.870;2022-07-29T12:06:55;3.38;;;3.00;;
59440;SDS011;45245;51.538;11.870;2022-07-29T12:09:21;2.38;;;2.17;;
59440;SDS011;45245;51.538;11.870;2022-07-29T12:11:48;4.70;;;2.80;;
59440;SDS011;45245;51.538;11.870;2022-07-29T12:14:30;2.72;;;2.38;;
59440;SDS011;45245;51.538;11.870;2022-07-29T12:16:56;3.10;;;2.80;;
59440;SDS011;45245;51.538;11.870;2022-07-29T12:19:22;4.38;;;2.97;;
59440;SDS011;45245;51.538;11.870;2022-07-29T12:21:49;3.20;;;2.90;;
59440;SDS011;45245;51.538;11.870;2022-07-29T12:24:17;3.47;;;2.50;;
59440;SDS011;45245;51.538;11.870;2022-07-29T12:26:54;2.60;;;2.40;;
59440;SDS011;45245;51.538;11.870;2022-07-29T12:29:23;3.95;;;2.92;;
59440;SDS011;45245;51.538;11.870;2022-07-29T12:31:52;4.20;;;2.47;;
59440;SDS011;45245;51.538;11.870;2022-07-29T12:34:22;3.25;;;2.95;;
59440;SDS011;45245;51.538;11.870;2022-07-29T12:36:48;3.05;;;2.40;;
59440;SDS011;45245;51.538;11.870;2022-07-29T12:39:15;4.05;;;2.42;;
59440;SDS011;45245;51.538;11.870;2022-07-29T12:41:41;5.05;;;2.40;;
59440;SDS011;45245;51.538;11.870;2022-07-29T12:44:07;2.90;;;2.47;;
59440;SDS011;45245;51.538;11.870;2022-07-29T12:46:32;2.58;;;2.38;;
59440;SDS011;45245;51.538;11.870;2022-07-29T12:48:57;6.38;;;2.92;;
59440;SDS011;45245;51.538;11.870;2022-07-29T12:54:09;2.53;;;2.33;;
59440;SDS011;45245;51.538;11.870;2022-07-29T12:56:35;3.80;;;2.15;;
59440;SDS011;45245;51.538;11.870;2022-07-29T13:01:43;2.85;;;2.40;;
59440;SDS011;45245;51.538;11.870;2022-07-29T13:04:08;2.40;;;2.20;;
59440;SDS011;45245;51.538;11.870;2022-07-29T13:06:41;3.50;;;2.50;;
59440;SDS011;45245;51.538;11.870;2022-07-29T13:09:14;2.95;;;2.50;;
59440;SDS011;45245;51.538;11.870;2022-07-29T13:14:09;2.40;;;2.20;;
59440;SDS011;45245;51.538;11.870;2022-07-29T13:16:36;2.63;;;2.40;;
59440;SDS011;45245;51.538;11.870;2022-07-29T13:19:11;2.42;;;2.22;;
59440;SDS011;45245;51.538;11.870;2022-07-29T13:21:37;1.98;;;1.80;;
59440;SDS011;45245;51.538;11.870;2022-07-29T13:24:04;6.05;;;2.95;;
59440;SDS011;45245;51.538;11.870;2022-07-29T13:26:31;4.63;;;2.80;;
59440;SDS011;45245;51.538;11.870;2022-07-29T13:28:56;2.22;;;2.03;;
59440;SDS011;45245;51.538;11.870;2022-07-29T13:31:22;3.90;;;2.75;;
59440;SDS011;45245;51.538;11.870;2022-07-29T13:33:48;5.22;;;2.85;;
59440;SDS011;45245;51.538;11.870;2022-07-29T13:36:14;2.60;;;2.40;;
59440;SDS011;45245;51.538;11.870;2022-07-29T13:38:39;2.67;;;2.30;;
59440;SDS011;45245;51.538;11.870;2022-07-29T13:41:05;3.72;;;2.30;;
59440;SDS011;45245;51.538;11.870;2022-07-29T13:43:30;3.38;;;2.65;;
59440;SDS011;45245;51.538;11.870;2022-07-29T13:45:56;4.72;;;2.40;;
59440;SDS011;45245;51.538;11.870;2022-07-29T13:48:21;2.95;;;2.30;;
59440;SDS011;45245;51.538;11.870;2022-07-29T13:50:47;6.30;;;2.58;;
59440;SDS011;45245;51.538;11.870;2022-07-29T13:53:13;2.85;;;2.35;;
59440;SDS011;45245;51.538;11.870;2022-07-29T13:55:38;2.53;;;2.33;;
59440;SDS011;45245;51.538;11.870;2022-07-29T13:58:03;2.95;;;2.58;;
59440;SDS011;45245;51.538;11.870;2022-07-29T14:00:29;2.92;;;2.30;;
59440;SDS011;45245;51.538;11.870;2022-07-29T14:02:55;3.25;;;2.28;;
59440;SDS011;45245;51.538;11.870;2022-07-29T14:05:20;2.67;;;2.33;;
59440;SDS011;45245;51.538;11.870;2022-07-29T14:07:45;2.50;;;2.30;;
59440;SDS011;45245;51.538;11.870;2022-07-29T14:10:11;2.88;;;2.67;;
59440;SDS011;45245;51.538;11.870;2022-07-29T14:12:36;3.72;;;2.17;;
59440;SDS011;45245;51.538;11.870;2022-07-29T14:15:03;3.38;;;2.85;;
59440;SDS011;45245;51.538;11.870;2022-07-29T14:17:28;2.40;;;2.20;;
59440;SDS011;45245;51.538;11.870;2022-07-29T14:19:54;3.03;;;2.28;;
59440;SDS011;45245;51.538;11.870;2022-07-29T14:22:19;2.42;;;2.22;;
59440;SDS011;45245;51.538;11.870;2022-07-29T14:24:44;2.65;;;2.45;;
59440;SDS011;45245;51.538;11.870;2022-07-29T14:27:10;2.63;;;2.42;;
59440;SDS011;45245;51.538;11.870;2022-07-29T14:29:36;2.58;;;2.38;;
59440;SDS011;45245;51.538;11.870;2022-07-29T14:32:01;3.25;;;2.55;;
59440;SDS011;45245;51.538;11.870;2022-07-29T14:34:27;2.97;;;2.25;;
59440;SDS011;45245;51.538;11.870;2022-07-29T14:36:53;2.70;;;2.47;;
59440;SDS011;45245;51.538;11.870;2022-07-29T14:39:20;2.63;;;2.42;;
59440;SDS011;45245;51.538;11.870;2022-07-29T14:41:48;2.15;;;2.05;;
59440;SDS011;45245;51.538;11.870;2022-07-29T14:44:14;3.35;;;2.60;;
59440;SDS011;45245;51.538;11.870;2022-07-29T14:46:40;4.28;;;2.40;;
59440;SDS011;45245;51.538;11.870;2022-07-29T14:49:05;2.30;;;1.95;;
59440;SDS011;45245;51.538;11.870;2022-07-29T14:51:31;2.47;;;2.38;;
59440;SDS011;45245;51.538;11.870;2022-07-29T14:53:56;3.58;;;2.25;;
59440;SDS011;45245;51.538;11.870;2022-07-29T14:56:22;3.33;;;2.70;;
59440;SDS011;45245;51.538;11.870;2022-07-29T14:58:48;2.08;;;1.90;;
59440;SDS011;45245;51.538;11.870;2022-07-29T15:01:14;5.95;;;2.28;;
59440;SDS011;45245;51.538;11.870;2022-07-29T15:03:39;2.65;;;2.47;;
59440;SDS011;45245;51.538;11.870;2022-07-29T15:06:04;3.67;;;2.42;;
59440;SDS011;45245;51.538;11.870;2022-07-29T15:08:30;3.05;;;2.85;;
59440;SDS011;45245;51.538;11.870;2022-07-29T15:10:56;2.20;;;2.10;;